Time;durP1;ratioP1;P1;durP2;ratioP2;P2;SDS_P1;SDS_P2;PMS_P1;PMS_P2;Temp;Humidity;BMP_temperature;BMP_pressure;BME280_temperature;BME280_humidity;BME280_pressure;Samples;Min_cycle;Max_cycle;Signal;HPM_P1;HPM_P2
2021/12/20 00:00:39;;;;;;;18.77;2.95;;;6.60;97.80;;;;;;5056824;28;20040;-78
2021/12/20 00:03:05;;;;;;;17.20;2.35;;;6.60;97.70;;;;;;5057214;28;20042;-78
2021/12/20 00:05:31;;;;;;;13.63;1.92;;;6.60;97.50;;;;;;5074588;28;20068;-79
2021/12/20 00:07:58;;;;;;;22.38;2.63;;;6.60;97.40;;;;;;5056567;28;20044;-79
2021/12/20 00:10:23;;;;;;;19.10;2.08;;;6.70;97.50;;;;;;5056426;28;20092;-79
2021/12/20 00:12:49;;;;;;;23.10;2.25;;;6.60;97.50;;;;;;5056405;28;20044;-78
2021/12/20 00:15:18;;;;;;;22.27;2.83;;;6.60;97.50;;;;;;5073884;28;20051;-78
2021/12/20 00:17:44;;;;;;;18.85;1.77;;;6.60;97.40;;;;;;5073852;28;20048;-78
2021/12/20 00:20:10;;;;;;;19.88;2.60;;;6.60;97.40;;;;;;5057822;28;20072;-79
2021/12/20 00:22:36;;;;;;;20.98;2.28;;;6.60;97.40;;;;;;5056844;28;20036;-79
2021/12/20 00:25:03;;;;;;;20.45;2.20;;;6.60;97.50;;;;;;5057239;28;20047;-79
2021/12/20 00:27:29;;;;;;;20.13;2.40;;;6.60;97.60;;;;;;5073515;28;20044;-77
2021/12/20 00:29:54;;;;;;;18.23;2.60;;;6.60;97.50;;;;;;5056877;28;20093;-78
2021/12/20 00:32:20;;;;;;;17.77;2.15;;;6.50;97.50;;;;;;5073464;28;20067;-78
2021/12/20 00:34:46;;;;;;;18.80;2.40;;;6.60;97.50;;;;;;5056954;28;20433;-78
2021/12/20 00:42:42;;;;;;;15.98;1.90;;;6.50;97.50;;;;;;5091231;28;20052;-77
2021/12/20 00:45:09;;;;;;;17.58;2.00;;;6.40;97.50;;;;;;5091286;28;20491;-78
2021/12/20 00:47:35;;;;;;;23.77;2.72;;;6.40;97.50;;;;;;5037519;28;1049911;-78
2021/12/20 00:50:00;;;;;;;21.38;2.60;;;6.30;97.50;;;;;;5057447;28;20105;-77
2021/12/20 00:52:26;;;;;;;22.55;2.38;;;6.30;97.50;;;;;;5057245;28;20488;-78
2021/12/20 00:54:52;;;;;;;18.42;2.38;;;6.20;97.60;;;;;;5073856;28;20123;-77
2021/12/20 00:57:17;;;;;;;20.83;2.35;;;6.20;97.80;;;;;;5073853;28;20092;-77
2021/12/20 00:59:43;;;;;;;21.23;2.38;;;6.10;97.80;;;;;;5073823;28;20496;-77
2021/12/20 01:02:09;;;;;;;15.23;2.25;;;6.20;97.80;;;;;;5057974;28;20052;-77
2021/12/20 01:04:35;;;;;;;16.35;2.15;;;6.20;98.00;;;;;;5073550;28;20051;-76
2021/12/20 01:07:01;;;;;;;18.33;2.10;;;6.10;98.20;;;;;;5073913;28;20075;-76
2021/12/20 01:09:27;;;;;;;17.58;2.00;;;6.10;98.20;;;;;;5056836;28;20128;-76
2021/12/20 01:11:54;;;;;;;16.50;2.17;;;6.10;98.40;;;;;;5072732;28;20116;-76
2021/12/20 01:14:25;;;;;;;20.48;2.70;;;6.00;98.40;;;;;;5073346;28;20139;-77
2021/12/20 01:16:53;;;;;;;22.00;2.10;;;6.00;98.50;;;;;;5073650;28;20119;-77
2021/12/20 01:19:19;;;;;;;20.27;1.77;;;6.00;98.60;;;;;;5073202;28;20085;-75
2021/12/20 01:21:45;;;;;;;18.60;2.35;;;6.00;98.60;;;;;;5056902;28;20044;-76
2021/12/20 01:24:10;;;;;;;16.10;1.95;;;6.00;98.70;;;;;;5073653;28;20055;-78
2021/12/20 01:26:36;;;;;;;19.15;2.00;;;6.10;98.70;;;;;;5055929;28;20127;-77
2021/12/20 01:29:02;;;;;;;14.55;1.80;;;6.00;98.60;;;;;;5056740;28;20056;-77
2021/12/20 01:31:27;;;;;;;16.02;2.10;;;6.00;98.70;;;;;;5056887;28;20519;-77
2021/12/20 01:33:53;;;;;;;13.73;2.10;;;6.00;98.60;;;;;;5071835;28;20044;-75
2021/12/20 01:36:19;;;;;;;18.23;2.38;;;6.10;98.60;;;;;;5057235;28;20048;-79
2021/12/20 01:38:45;;;;;;;21.73;2.08;;;6.10;98.50;;;;;;5072543;28;20048;-78
2021/12/20 01:41:11;;;;;;;20.08;2.08;;;6.10;98.40;;;;;;5056589;28;20048;-79
2021/12/20 01:43:38;;;;;;;19.08;1.92;;;6.10;98.40;;;;;;5056802;28;20484;-79
2021/12/20 01:46:04;;;;;;;25.05;3.17;;;6.10;98.20;;;;;;5056147;28;20142;-77
2021/12/20 01:48:31;;;;;;;16.65;1.98;;;6.10;98.20;;;;;;5056625;28;20136;-79
2021/12/20 01:53:26;;;;;;;19.98;1.90;;;6.20;98.30;;;;;;5072512;28;20083;-78
2021/12/20 01:55:54;;;;;;;19.23;2.75;;;6.20;98.30;;;;;;5072778;28;20040;-78
2021/12/20 01:58:20;;;;;;;15.93;1.95;;;6.10;98.20;;;;;;5055812;28;20508;-77
2021/12/20 02:03:33;;;;;;;21.48;2.22;;;6.20;98.50;;;;;;5072880;28;20051;-78
2021/12/20 02:06:03;;;;;;;20.33;2.30;;;6.20;98.10;;;;;;5056194;28;20131;-78
2021/12/20 02:08:29;;;;;;;12.75;1.55;;;6.20;98.10;;;;;;5055236;28;20052;-78
2021/12/20 02:11:07;;;;;;;16.40;1.92;;;6.20;98.00;;;;;;5072064;28;20472;-78
2021/12/20 02:13:33;;;;;;;18.48;2.13;;;6.20;98.00;;;;;;5073330;28;20484;-78
2021/12/20 02:15:59;;;;;;;13.40;1.67;;;6.20;97.90;;;;;;5071976;28;20907;-77
2021/12/20 02:18:26;;;;;;;19.10;2.00;;;6.20;97.80;;;;;;5056003;28;20044;-78
2021/12/20 02:20:52;;;;;;;25.13;2.17;;;6.20;97.80;;;;;;5055901;28;20047;-79
2021/12/20 02:23:18;;;;;;;19.67;2.38;;;6.20;97.60;;;;;;5072209;28;20044;-79
2021/12/20 02:25:44;;;;;;;17.05;1.92;;;6.20;97.70;;;;;;5072852;28;20123;-77
2021/12/20 02:28:12;;;;;;;18.90;1.88;;;6.20;97.70;;;;;;5071968;28;20036;-78
2021/12/20 02:38:51;;;;;;;15.38;2.03;;;6.20;97.70;;;;;;5072601;28;20052;-78
2021/12/20 02:41:29;;;;;;;21.42;2.03;;;6.20;97.80;;;;;;5055548;28;20040;-77
2021/12/20 02:44:03;;;;;;;18.42;1.75;;;6.10;97.80;;;;;;5070445;28;20056;-77
2021/12/20 02:49:05;;;;;;;13.02;1.70;;;6.10;98.00;;;;;;5090037;28;20063;-77
2021/12/20 02:51:30;;;;;;;12.02;1.13;;;6.10;98.20;;;;;;5072192;28;20098;-77
2021/12/20 02:53:58;;;;;;;20.60;2.00;;;6.10;98.20;;;;;;5072698;28;20040;-76
2021/12/20 02:56:24;;;;;;;14.77;1.00;;;6.10;98.20;;;;;;5054658;28;20040;-78
2021/12/20 02:58:51;;;;;;;20.02;1.73;;;6.10;98.20;;;;;;5070600;28;20055;-79
2021/12/20 03:01:17;;;;;;;24.33;2.40;;;6.10;98.20;;;;;;5055320;28;20055;-81
2021/12/20 03:03:43;;;;;;;15.75;1.60;;;6.10;98.10;;;;;;5071458;28;20048;-81
2021/12/20 03:06:11;;;;;;;12.35;1.58;;;6.10;98.00;;;;;;5068552;28;20519;-80
2021/12/20 03:08:38;;;;;;;16.70;1.77;;;6.10;97.80;;;;;;5072642;28;20109;-80
2021/12/20 03:11:04;;;;;;;14.70;1.27;;;6.10;97.70;;;;;;5072180;28;20046;-77
2021/12/20 03:13:30;;;;;;;9.38;1.02;;;6.10;97.60;;;;;;5071658;28;20139;-80
2021/12/20 03:15:56;;;;;;;9.25;1.30;;;6.10;97.40;;;;;;5072274;28;20469;-72
2021/12/20 03:18:21;;;;;;;11.15;0.75;;;6.10;97.50;;;;;;5071769;28;20126;-80
2021/12/20 03:20:47;;;;;;;9.20;1.10;;;6.10;97.60;;;;;;5071974;28;20044;-81
2021/12/20 03:23:12;;;;;;;13.55;1.40;;;6.10;97.70;;;;;;5072355;28;20083;-82
2021/12/20 03:25:38;;;;;;;13.95;1.40;;;6.10;97.70;;;;;;5054808;28;20447;-82
2021/12/20 03:28:04;;;;;;;12.43;1.02;;;6.10;97.70;;;;;;5072766;28;20052;-75
2021/12/20 03:30:29;;;;;;;10.23;0.80;;;6.10;97.80;;;;;;5072540;28;20531;-81
2021/12/20 03:32:55;;;;;;;15.50;1.60;;;6.10;97.90;;;;;;5071626;28;20135;-80
2021/12/20 03:35:21;;;;;;;13.75;1.27;;;6.00;98.00;;;;;;5071184;28;20408;-79
2021/12/20 03:37:46;;;;;;;12.02;1.13;;;6.10;98.20;;;;;;5058928;28;20403;-80
2021/12/20 03:40:12;;;;;;;10.52;1.52;;;6.00;98.00;;;;;;5058126;28;20032;-77
2021/12/20 03:42:42;;;;;;;12.05;0.85;;;6.00;97.90;;;;;;5058868;28;20083;-79
2021/12/20 03:45:08;;;;;;;14.55;1.45;;;6.10;97.90;;;;;;5055809;28;20080;-79
2021/12/20 03:47:34;;;;;;;15.57;1.17;;;6.00;98.00;;;;;;5054821;28;20135;-80
2021/12/20 03:49:59;;;;;;;15.18;1.15;;;6.00;98.00;;;;;;5072716;28;21708;-78
2021/12/20 03:52:25;;;;;;;13.43;1.30;;;6.00;97.90;;;;;;5057937;28;20459;-78
2021/12/20 03:54:51;;;;;;;12.43;1.55;;;6.00;97.70;;;;;;5058256;28;20051;-78
2021/12/20 03:57:16;;;;;;;15.63;1.48;;;6.00;97.50;;;;;;5059177;28;20048;-79
2021/12/20 03:59:46;;;;;;;11.15;1.05;;;6.00;97.70;;;;;;5058177;28;20044;-79
2021/12/20 04:02:16;;;;;;;12.30;0.68;;;5.90;97.80;;;;;;5075209;28;20119;-77
2021/12/20 04:04:41;;;;;;;14.20;1.33;;;5.90;97.80;;;;;;5057795;28;20132;-78
2021/12/20 04:07:07;;;;;;;10.88;1.17;;;5.90;97.60;;;;;;5074863;28;20145;-78
2021/12/20 04:09:32;;;;;;;10.90;1.23;;;5.90;97.40;;;;;;5075146;28;20100;-78
2021/12/20 04:11:58;;;;;;;12.80;0.95;;;5.90;97.30;;;;;;5057816;28;20139;-78
2021/12/20 04:14:23;;;;;;;12.02;1.00;;;5.90;97.20;;;;;;5057547;28;20454;-77
2021/12/20 04:16:50;;;;;;;15.38;1.58;;;5.90;97.30;;;;;;5075054;28;20070;-76
2021/12/20 04:19:16;;;;;;;10.27;0.98;;;5.90;97.30;;;;;;5075220;28;20044;-77
2021/12/20 04:21:41;;;;;;;8.60;0.57;;;5.90;97.20;;;;;;5057783;28;20051;-73
2021/12/20 04:24:07;;;;;;;11.80;0.88;;;5.90;97.20;;;;;;5074571;28;20092;-77
2021/12/20 04:26:33;;;;;;;13.15;1.02;;;5.90;97.30;;;;;;5058546;28;20040;-77
2021/12/20 04:28:58;;;;;;;8.98;0.98;;;5.90;97.30;;;;;;5073936;28;20044;-77
2021/12/20 04:31:24;;;;;;;12.80;0.82;;;5.90;97.30;;;;;;5058539;28;20052;-77
2021/12/20 04:33:50;;;;;;;12.27;0.95;;;5.80;97.20;;;;;;5056508;28;20047;-74
2021/12/20 04:36:15;;;;;;;8.60;0.80;;;5.80;97.30;;;;;;5057718;28;20480;-79
2021/12/20 04:38:43;;;;;;;10.32;1.02;;;5.80;97.50;;;;;;5056859;28;20040;-77
2021/12/20 04:41:09;;;;;;;12.27;0.73;;;5.80;97.70;;;;;;5074240;28;20055;-76
2021/12/20 04:43:34;;;;;;;16.77;1.35;;;5.70;97.90;;;;;;5073371;28;20089;-78
2021/12/20 04:46:00;;;;;;;7.88;0.52;;;5.70;97.90;;;;;;5058083;28;20377;-78
2021/12/20 04:48:26;;;;;;;7.00;0.70;;;5.70;98.00;;;;;;5072364;28;20040;-78
2021/12/20 04:50:51;;;;;;;7.72;0.85;;;5.70;98.00;;;;;;5074388;28;20040;-78
2021/12/20 04:53:17;;;;;;;14.35;0.95;;;5.60;98.10;;;;;;5073822;28;20058;-78
2021/12/20 04:55:43;;;;;;;11.82;0.90;;;5.60;98.20;;;;;;5073811;28;20071;-78
2021/12/20 04:58:08;;;;;;;8.65;0.60;;;5.70;98.40;;;;;;5074409;28;20051;-76
2021/12/20 05:00:37;;;;;;;7.28;0.77;;;5.60;98.50;;;;;;5073936;28;20044;-78
2021/12/20 05:03:04;;;;;;;12.93;0.70;;;5.60;98.70;;;;;;5072745;28;20132;-78
2021/12/20 05:05:30;;;;;;;11.93;1.27;;;5.60;98.70;;;;;;5073154;28;20062;-78
2021/12/20 05:07:56;;;;;;;13.57;0.90;;;5.60;98.80;;;;;;5073780;28;20046;-78
2021/12/20 05:10:29;;;;;;;8.93;1.23;;;5.60;98.80;;;;;;5073643;28;20115;-79
2021/12/20 05:12:57;;;;;;;13.35;0.70;;;5.60;98.80;;;;;;5073901;28;20055;-76
2021/12/20 05:15:23;;;;;;;13.65;0.90;;;5.60;98.70;;;;;;5057645;28;20047;-77
2021/12/20 05:17:50;;;;;;;11.38;1.10;;;5.60;98.70;;;;;;5073166;28;20085;-76
2021/12/20 05:20:19;;;;;;;7.38;1.02;;;5.60;98.50;;;;;;5092494;28;20040;-77
2021/12/20 05:22:45;;;;;;;9.00;0.95;;;5.60;98.50;;;;;;5056803;28;20052;-77
2021/12/20 05:25:11;;;;;;;10.27;1.02;;;5.60;98.40;;;;;;5073735;28;20083;-77
2021/12/20 05:27:37;;;;;;;9.85;1.02;;;5.60;98.60;;;;;;5057082;28;20101;-77
2021/12/20 05:30:05;;;;;;;10.35;1.05;;;5.70;98.60;;;;;;5074337;28;20123;-77
2021/12/20 05:32:31;;;;;;;7.50;0.85;;;5.60;98.50;;;;;;5071715;28;20055;-77
2021/12/20 05:34:56;;;;;;;10.95;0.68;;;5.60;98.50;;;;;;5073902;28;20040;-73
2021/12/20 05:37:22;;;;;;;13.43;1.33;;;5.60;98.50;;;;;;5073242;28;20044;-76
2021/12/20 05:39:47;;;;;;;11.35;1.45;;;5.60;98.60;;;;;;5091420;28;20075;-76
2021/12/20 05:42:13;;;;;;;9.90;0.90;;;5.60;98.30;;;;;;5090412;28;20036;-76
2021/12/20 05:44:39;;;;;;;10.85;1.02;;;5.70;98.10;;;;;;5091589;28;20052;-77
2021/12/20 05:47:04;;;;;;;9.82;0.70;;;5.70;98.00;;;;;;5072112;28;20052;-76
2021/12/20 05:49:31;;;;;;;8.23;0.80;;;5.60;97.90;;;;;;5073679;28;20131;-73
2021/12/20 05:51:58;;;;;;;7.03;0.60;;;5.60;97.60;;;;;;5072295;28;20052;-76
2021/12/20 05:54:24;;;;;;;8.20;1.13;;;5.60;97.40;;;;;;5091551;28;20048;-76
2021/12/20 05:56:50;;;;;;;17.05;0.70;;;5.70;97.30;;;;;;5073297;28;20062;-73
2021/12/20 05:59:15;;;;;;;12.23;0.88;;;5.70;97.30;;;;;;5072327;28;20058;-76
2021/12/20 06:01:41;;;;;;;10.57;1.00;;;5.70;97.30;;;;;;5091173;28;20484;-76
2021/12/20 06:04:06;;;;;;;5.80;1.02;;;5.70;97.20;;;;;;5072842;28;20036;-76
2021/12/20 06:06:32;;;;;;;8.68;0.30;;;5.70;97.30;;;;;;5072358;28;20048;-76
2021/12/20 06:08:58;;;;;;;9.75;0.93;;;5.70;97.40;;;;;;5073311;28;20842;-85
2021/12/20 06:11:24;;;;;;;13.43;0.70;;;5.70;97.40;;;;;;5072860;28;20047;-78
2021/12/20 06:13:51;;;;;;;8.68;0.77;;;5.70;97.30;;;;;;5072165;28;20055;-76
2021/12/20 06:16:17;;;;;;;8.73;0.75;;;5.60;97.30;;;;;;5072785;28;20055;-79
2021/12/20 06:18:43;;;;;;;11.50;0.80;;;5.70;97.20;;;;;;5056478;28;20044;-77
2021/12/20 06:21:08;;;;;;;8.50;0.82;;;5.60;97.10;;;;;;5072348;28;20789;-79
2021/12/20 06:23:35;;;;;;;6.85;0.70;;;5.70;97.20;;;;;;5071887;28;20060;-77
2021/12/20 06:26:01;;;;;;;7.65;0.68;;;5.60;97.30;;;;;;5072659;28;20046;-77
2021/12/20 06:28:26;;;;;;;10.27;0.60;;;5.60;97.20;;;;;;5072556;28;20110;-74
2021/12/20 06:30:52;;;;;;;8.02;0.90;;;5.60;97.20;;;;;;5072673;28;20086;-79
2021/12/20 06:33:18;;;;;;;8.40;0.70;;;5.60;97.30;;;;;;5055197;28;20036;-79
2021/12/20 06:35:45;;;;;;;7.63;0.50;;;5.60;97.40;;;;;;5072182;28;20082;-79
2021/12/20 06:38:18;;;;;;;4.88;0.40;;;5.60;97.50;;;;;;5072411;28;20063;-78
2021/12/20 06:40:44;;;;;;;;;;;5.60;97.60;;;;;;5073368;28;20150;-71
2021/12/20 06:43:09;;;;;;;9.65;0.40;;;5.60;97.80;;;;;;5089432;28;20015;-78
2021/12/20 06:45:36;;;;;;;8.90;0.55;;;5.50;97.90;;;;;;5073520;28;20118;-80
2021/12/20 06:48:02;;;;;;;12.05;0.80;;;5.50;98.00;;;;;;5055184;28;20056;-80
2021/12/20 06:50:28;;;;;;;9.05;0.60;;;5.50;98.00;;;;;;5072411;28;20040;-81
2021/12/20 06:52:53;;;;;;;6.82;0.52;;;5.50;98.20;;;;;;5072295;28;20044;-82
2021/12/20 06:55:19;;;;;;;9.30;0.73;;;5.40;98.20;;;;;;5072180;28;20048;-80
2021/12/20 06:57:45;;;;;;;10.23;0.60;;;5.30;98.20;;;;;;5055572;28;20488;-80
2021/12/20 07:00:11;;;;;;;6.38;0.43;;;5.30;98.20;;;;;;5072466;28;20050;-81
2021/12/20 07:02:36;;;;;;;7.57;0.40;;;5.20;98.20;;;;;;5051572;28;20059;-83
2021/12/20 07:05:03;;;;;;;8.27;0.60;;;5.00;98.20;;;;;;5072034;28;20036;-79
2021/12/20 07:07:29;;;;;;;7.32;0.65;;;5.00;98.40;;;;;;5055761;28;20393;-76
2021/12/20 07:09:54;;;;;;;8.25;0.50;;;4.90;98.50;;;;;;5055269;28;20055;-78
2021/12/20 07:12:20;;;;;;;6.75;0.70;;;4.80;98.70;;;;;;5058677;28;20048;-80
2021/12/20 07:14:49;;;;;;;7.50;0.50;;;4.70;98.80;;;;;;5059768;28;20435;-83
2021/12/20 07:17:16;;;;;;;10.35;0.93;;;4.70;99.00;;;;;;5059304;28;20053;-81
2021/12/20 07:19:41;;;;;;;5.97;0.40;;;4.60;99.10;;;;;;5059477;28;20084;-82
2021/12/20 07:22:07;;;;;;;7.65;0.43;;;4.60;99.30;;;;;;5076425;28;20071;-81
2021/12/20 07:24:32;;;;;;;5.05;0.30;;;4.50;99.40;;;;;;5075783;28;20056;-82
2021/12/20 07:26:58;;;;;;;6.68;0.47;;;4.40;99.50;;;;;;5058155;28;20052;-82
2021/12/20 07:29:24;;;;;;;11.18;0.70;;;4.40;99.50;;;;;;5072492;28;20044;-82
2021/12/20 07:31:49;;;;;;;9.23;0.30;;;4.30;99.50;;;;;;5075147;28;20071;-82
2021/12/20 07:34:15;;;;;;;6.72;0.40;;;4.20;99.50;;;;;;5052158;28;20036;-83
2021/12/20 07:36:41;;;;;;;5.20;0.30;;;4.20;99.60;;;;;;5054029;28;20040;-83
2021/12/20 07:39:07;;;;;;;6.97;0.50;;;4.10;99.60;;;;;;5074476;28;20544;-74
2021/12/20 07:41:33;;;;;;;5.20;0.40;;;4.10;99.70;;;;;;5054448;28;20082;-76
2021/12/20 07:43:59;;;;;;;9.02;0.45;;;4.10;99.80;;;;;;5057750;28;20056;-75
2021/12/20 07:46:25;;;;;;;2.90;0.30;;;4.00;99.80;;;;;;5093350;28;20056;-83
2021/12/20 07:48:51;;;;;;;6.90;0.50;;;4.00;99.80;;;;;;5057613;28;20048;-82
2021/12/20 07:51:17;;;;;;;10.10;0.40;;;3.90;99.80;;;;;;5075303;28;20048;-76
2021/12/20 07:53:43;;;;;;;8.93;0.55;;;3.90;99.90;;;;;;5072251;28;20044;-84
2021/12/20 07:56:10;;;;;;;9.70;0.55;;;3.90;99.90;;;;;;5065784;28;20051;-78
2021/12/20 07:58:35;;;;;;;6.28;0.47;;;3.80;99.90;;;;;;5028937;28;20055;-83
2021/12/20 08:01:04;;;;;;;9.73;0.35;;;3.70;99.90;;;;;;5072689;28;20416;-79
2021/12/20 08:03:30;;;;;;;10.77;0.40;;;3.70;99.90;;;;;;5058052;28;20400;-84
2021/12/20 08:05:56;;;;;;;6.40;0.82;;;3.70;99.90;;;;;;5068625;28;20401;-74
2021/12/20 08:08:22;;;;;;;7.43;1.17;;;3.60;99.90;;;;;;5077884;28;20044;-82
2021/12/20 08:10:47;;;;;;;14.45;2.13;;;3.60;99.90;;;;;;5073610;28;20127;-85
2021/12/20 08:13:15;;;;;;;9.00;1.92;;;3.60;99.90;;;;;;5058222;28;20048;-73
2021/12/20 08:15:40;;;;;;;9.75;1.83;;;3.60;99.90;;;;;;5074822;28;20036;-83
2021/12/20 08:18:06;;;;;;;8.07;1.52;;;3.60;99.90;;;;;;5058349;28;20117;-73
2021/12/20 08:20:32;;;;;;;8.60;1.10;;;3.70;99.90;;;;;;5058260;28;20036;-73
2021/12/20 08:22:58;;;;;;;10.02;1.17;;;3.70;99.90;;;;;;5070741;28;20037;-84
2021/12/20 08:25:24;;;;;;;10.27;1.50;;;3.60;99.90;;;;;;5065176;28;20078;-83
2021/12/20 08:27:50;;;;;;;6.68;0.95;;;3.60;99.90;;;;;;5053611;28;20403;-77
2021/12/20 08:30:17;;;;;;;5.50;0.88;;;3.60;99.90;;;;;;5058058;28;20101;-86
2021/12/20 08:32:43;;;;;;;8.55;1.25;;;3.60;99.90;;;;;;5074217;28;20040;-75
2021/12/20 08:35:10;;;;;;;7.70;0.82;;;3.60;99.90;;;;;;5074572;28;20116;-83
2021/12/20 08:37:36;;;;;;;4.03;0.52;;;3.50;99.90;;;;;;5057534;28;20480;-83
2021/12/20 08:40:04;;;;;;;10.35;0.85;;;3.50;99.90;;;;;;5074318;28;20119;-84
2021/12/20 08:42:30;;;;;;;7.38;0.30;;;3.60;99.90;;;;;;5057474;28;20074;-83
2021/12/20 08:44:56;;;;;;;10.32;0.60;;;3.60;99.90;;;;;;5058621;28;20496;-84
2021/12/20 08:47:22;;;;;;;7.28;0.80;;;3.50;99.90;;;;;;5074605;28;20087;-84
2021/12/20 08:49:48;;;;;;;8.00;0.80;;;3.50;99.90;;;;;;5057712;28;20039;-84
2021/12/20 08:52:14;;;;;;;5.80;0.57;;;3.50;99.90;;;;;;5058297;28;20044;-75
2021/12/20 08:54:40;;;;;;;8.00;0.85;;;3.50;99.90;;;;;;5058255;28;20048;-84
2021/12/20 08:57:07;;;;;;;10.32;0.90;;;3.50;99.90;;;;;;5074290;28;20039;-84
2021/12/20 08:59:34;;;;;;;7.57;1.13;;;3.50;99.90;;;;;;5073909;28;20101;-84
2021/12/20 09:02:00;;;;;;;6.85;1.15;;;3.50;99.90;;;;;;5074253;28;20066;-84
2021/12/20 09:04:26;;;;;;;7.47;1.08;;;3.50;99.90;;;;;;5057887;28;20052;-84
2021/12/20 09:06:52;;;;;;;11.70;1.65;;;3.50;99.90;;;;;;5074641;28;20040;-75
2021/12/20 09:09:18;;;;;;;8.02;1.63;;;3.50;99.90;;;;;;5073813;28;20093;-84
2021/12/20 09:11:45;;;;;;;8.85;1.10;;;3.50;99.90;;;;;;5057745;28;20052;-84
2021/12/20 09:14:13;;;;;;;13.82;1.52;;;3.50;99.90;;;;;;5074118;28;20047;-83
2021/12/20 09:16:41;;;;;;;8.98;1.50;;;3.60;99.90;;;;;;5073606;28;20050;-83
2021/12/20 09:19:07;;;;;;;14.25;4.47;;;3.60;99.90;;;;;;5074661;28;20532;-74
2021/12/20 09:21:34;;;;;;;11.30;1.67;;;3.70;99.90;;;;;;5074176;28;20128;-79
2021/12/20 09:24:00;;;;;;;16.98;1.40;;;3.70;99.90;;;;;;5057234;28;20043;-84
2021/12/20 09:26:26;;;;;;;10.82;1.15;;;3.80;99.90;;;;;;5056929;28;20040;-76
2021/12/20 09:28:51;;;;;;;11.77;1.77;;;3.80;99.90;;;;;;5073847;28;20492;-82
2021/12/20 09:31:17;;;;;;;14.40;1.00;;;3.90;99.90;;;;;;5073082;28;20044;-82
2021/12/20 09:33:43;;;;;;;15.65;1.60;;;4.00;99.90;;;;;;5053394;28;20108;-78
2021/12/20 09:36:08;;;;;;;14.38;2.33;;;4.00;99.90;;;;;;5066259;28;20044;-82
2021/12/20 09:38:34;;;;;;;16.52;2.20;;;4.00;99.90;;;;;;5055828;28;20039;-80
2021/12/20 09:43:38;;;;;;;17.52;2.17;;;4.10;99.90;;;;;;5073459;28;20056;-77
2021/12/20 09:46:07;;;;;;;19.42;2.35;;;4.20;99.90;;;;;;5072560;28;20051;-78
2021/12/20 09:48:35;;;;;;;17.02;2.03;;;4.20;99.90;;;;;;5072367;28;20045;-82
2021/12/20 09:51:03;;;;;;;25.13;3.40;;;4.30;99.90;;;;;;5073346;28;20048;-82
2021/12/20 09:53:29;;;;;;;27.63;3.08;;;4.30;99.90;;;;;;5055470;28;20052;-80
2021/12/20 09:55:57;;;;;;;21.20;2.30;;;4.40;99.90;;;;;;5056885;28;20044;-81
2021/12/20 09:58:25;;;;;;;24.45;2.15;;;4.40;99.90;;;;;;5071115;28;20052;-79
2021/12/20 10:00:51;;;;;;;18.70;2.38;;;4.50;99.90;;;;;;5055676;28;20462;-74
2021/12/20 10:03:22;;;;;;;20.55;2.95;;;4.60;99.90;;;;;;5056563;28;20044;-80
2021/12/20 10:05:48;;;;;;;20.63;2.55;;;4.60;99.90;;;;;;5071832;28;20040;-80
2021/12/20 10:08:19;;;;;;;19.83;2.60;;;4.70;99.90;;;;;;5073236;28;20105;-82
2021/12/20 10:10:48;;;;;;;20.83;2.33;;;4.70;99.90;;;;;;5072463;28;20453;-83
2021/12/20 10:13:26;;;;;;;20.48;2.00;;;4.80;99.90;;;;;;5072222;28;20443;-81
2021/12/20 10:15:53;;;;;;;24.15;3.03;;;4.90;99.90;;;;;;5052920;28;20051;-82
2021/12/20 10:18:19;;;;;;;26.17;2.88;;;4.90;99.90;;;;;;5055497;28;20043;-78
2021/12/20 10:20:50;;;;;;;24.65;2.80;;;4.90;99.90;;;;;;5073608;28;20101;-82
2021/12/20 10:23:22;;;;;;;22.60;2.53;;;5.00;99.90;;;;;;5056360;28;20044;-82
2021/12/20 10:26:04;;;;;;;24.52;3.05;;;5.10;99.90;;;;;;5054871;28;20039;-82
2021/12/20 10:28:35;;;;;;;14.52;2.45;;;5.10;99.90;;;;;;5052990;28;20133;-82
2021/12/20 10:31:05;;;;;;;25.10;2.95;;;5.20;99.90;;;;;;5061570;28;20365;-82
2021/12/20 10:33:32;;;;;;;18.75;1.95;;;5.20;99.90;;;;;;5072438;28;20074;-83
2021/12/20 10:36:03;;;;;;;20.98;3.08;;;5.20;99.90;;;;;;5073076;28;20362;-82
2021/12/20 10:38:37;;;;;;;20.80;2.50;;;5.30;99.90;;;;;;5072240;28;20509;-78
2021/12/20 10:41:29;;;;;;;22.67;2.95;;;5.30;99.90;;;;;;5056316;28;20070;-81
2021/12/20 10:44:00;;;;;;;22.38;3.08;;;5.40;99.90;;;;;;5069355;28;20048;-81
2021/12/20 10:46:33;;;;;;;23.58;2.75;;;5.50;99.90;;;;;;5059074;28;20095;-81
2021/12/20 10:49:18;;;;;;;29.15;3.47;;;5.50;99.90;;;;;;5076896;28;20574;-82
2021/12/20 10:51:48;;;;;;;16.65;2.80;;;5.50;99.90;;;;;;5077345;28;20048;-81
2021/12/20 10:54:18;;;;;;;34.47;3.58;;;5.60;99.90;;;;;;5076454;28;20138;-82
2021/12/20 10:57:01;;;;;;;21.90;2.47;;;5.70;99.90;;;;;;5056312;28;20538;-76
2021/12/20 10:59:31;;;;;;;22.60;3.22;;;5.70;99.90;;;;;;5073406;28;20052;-82
2021/12/20 11:04:50;;;;;;;23.15;2.30;;;5.80;99.90;;;;;;5057427;28;20056;-83
2021/12/20 11:09:58;;;;;;;25.70;3.00;;;5.90;99.60;;;;;;5056605;28;20055;-82
2021/12/20 11:12:31;;;;;;;17.05;2.70;;;5.90;99.50;;;;;;5056532;28;20055;-83
2021/12/20 11:15:07;;;;;;;16.73;2.38;;;6.00;99.40;;;;;;5039274;28;20044;-82
2021/12/20 11:17:33;;;;;;;20.13;3.33;;;6.00;99.20;;;;;;5056814;28;20440;-82
2021/12/20 11:19:59;;;;;;;18.98;2.95;;;6.10;99.30;;;;;;5056973;28;20491;-76
2021/12/20 11:22:25;;;;;;;17.98;2.40;;;6.10;99.20;;;;;;5055795;28;20036;-82
2021/12/20 11:25:04;;;;;;;22.65;2.72;;;6.10;99.20;;;;;;5056566;28;20080;-83
2021/12/20 11:27:39;;;;;;;22.40;2.63;;;6.20;98.90;;;;;;5056802;28;20044;-81
2021/12/20 11:30:15;;;;;;;16.25;2.17;;;6.20;98.70;;;;;;5059889;28;20131;-81
2021/12/20 11:32:41;;;;;;;26.98;3.08;;;6.30;98.60;;;;;;5076397;28;20047;-82
2021/12/20 11:35:07;;;;;;;21.73;2.47;;;6.30;98.20;;;;;;5059168;28;20127;-82
2021/12/20 11:37:33;;;;;;;25.30;2.50;;;6.30;98.10;;;;;;5076283;28;20044;-82
2021/12/20 11:40:02;;;;;;;15.57;2.08;;;6.40;98.00;;;;;;5059770;28;20048;-79
2021/12/20 11:42:29;;;;;;;11.40;1.92;;;6.40;97.80;;;;;;5058599;28;20472;-81
2021/12/20 11:44:59;;;;;;;13.52;2.10;;;6.40;97.50;;;;;;5059435;28;20051;-79
2021/12/20 11:47:44;;;;;;;17.77;2.00;;;6.40;97.50;;;;;;5075742;28;20090;-82
2021/12/20 11:50:17;;;;;;;14.02;1.77;;;6.50;97.30;;;;;;5075492;28;20055;-80
2021/12/20 11:52:46;;;;;;;9.75;2.22;;;6.60;97.20;;;;;;5058616;28;20043;-82
2021/12/20 11:55:20;;;;;;;13.45;1.55;;;6.60;97.00;;;;;;5059251;28;20040;-82
2021/12/20 11:57:57;;;;;;;18.42;1.75;;;6.60;96.10;;;;;;5074100;28;20036;-77
2021/12/20 12:00:29;;;;;;;14.15;1.85;;;6.60;96.10;;;;;;5056930;28;20048;-81
2021/12/20 12:03:15;;;;;;;13.13;1.13;;;6.70;95.90;;;;;;5074538;28;20492;-81
2021/12/20 12:05:49;;;;;;;17.55;1.40;;;6.70;95.80;;;;;;5057285;28;20519;-82
2021/12/20 12:08:34;;;;;;;8.05;1.10;;;6.70;95.20;;;;;;5059458;28;20447;-86
2021/12/20 12:11:09;;;;;;;8.85;0.90;;;6.70;94.90;;;;;;5059432;28;20044;-87
2021/12/20 12:13:57;;;;;;;13.05;1.52;;;6.80;94.70;;;;;;5059897;28;20048;-86
2021/12/20 12:16:53;;;;;;;10.20;1.13;;;6.80;94.50;;;;;;5058858;28;20072;-87
2021/12/20 12:19:37;;;;;;;12.90;1.80;;;6.80;94.20;;;;;;5093384;28;20055;-77
2021/12/20 12:22:03;;;;;;;8.38;1.15;;;6.80;94.10;;;;;;5079283;28;20519;-87
2021/12/20 12:24:47;;;;;;;11.07;1.17;;;6.80;94.00;;;;;;5081004;28;20094;-84
2021/12/20 12:27:22;;;;;;;7.25;1.25;;;6.90;93.70;;;;;;5058770;28;20070;-87
2021/12/20 12:30:13;;;;;;;9.68;1.63;;;6.90;93.60;;;;;;5074913;28;20543;-83
2021/12/20 12:32:48;;;;;;;9.15;1.58;;;7.00;93.40;;;;;;5074276;28;20401;-77
2021/12/20 12:35:39;;;;;;;15.73;3.85;;;7.20;94.40;;;;;;5074510;28;20040;-85
2021/12/20 12:38:52;;;;;;;11.77;2.53;;;8.00;92.80;;;;;;5074418;28;20086;-85
2021/12/20 12:41:27;;;;;;;11.60;2.88;;;9.20;91.20;;;;;;4955320;28;20086;-85
2021/12/20 12:44:01;;;;;;;9.10;1.40;;;10.30;88.40;;;;;;4942865;28;20109;-74
2021/12/20 12:46:36;;;;;;;9.02;1.88;;;10.60;83.90;;;;;;5020466;28;20070;-89
2021/12/20 12:49:20;;;;;;;9.40;1.52;;;10.80;82.90;;;;;;5061896;28;20044;-81
2021/12/20 12:51:54;;;;;;;8.35;1.35;;;11.40;78.70;;;;;;5057419;28;20393;-86
2021/12/20 12:54:36;;;;;;;8.82;1.15;;;11.90;78.80;;;;;;5073205;28;20055;-79
2021/12/20 12:57:11;;;;;;;13.65;1.38;;;12.30;70.90;;;;;;5070931;28;20033;-87
2021/12/20 12:59:42;;;;;;;8.10;1.00;;;12.70;70.50;;;;;;5055872;28;20131;-87
2021/12/20 13:02:23;;;;;;;8.77;0.70;;;13.00;70.20;;;;;;5059068;28;20047;-85
2021/12/20 13:04:54;;;;;;;6.78;0.60;;;13.20;66.20;;;;;;5071495;28;20085;-78
2021/12/20 13:07:32;;;;;;;7.72;0.52;;;13.50;64.40;;;;;;5053544;28;20052;-82
2021/12/20 13:10:03;;;;;;;5.10;0.73;;;13.50;62.40;;;;;;5052213;28;20051;-85
2021/12/20 13:12:38;;;;;;;7.70;0.60;;;13.50;63.10;;;;;;5073810;28;20044;-77
2021/12/20 13:15:26;;;;;;;4.70;0.40;;;13.20;61.80;;;;;;5061784;28;20044;-75
2021/12/20 13:17:59;;;;;;;4.60;0.40;;;12.60;62.30;;;;;;5073913;28;20406;-77
2021/12/20 13:23:18;;;;;;;5.25;0.40;;;10.90;64.50;;;;;;5073839;28;20040;-86
2021/12/20 13:25:51;;;;;;;3.22;0.30;;;9.90;65.00;;;;;;5073165;28;20040;-87
2021/12/20 13:28:24;;;;;;;;;;;9.40;66.50;;;;;;5073520;28;20044;-87